sensor_id;sensor_type;location;lat;lon;timestamp;pressure;altitude;pressure_sealevel;temperature;humidity
71057;BME280;58380;48.312;9.246;2023-10-19T08:20:32;91887.31;;;9.70;100.00
71057;BME280;58380;48.312;9.246;2023-10-19T08:23:36;91889.84;;;9.89;100.00
71057;BME280;58380;48.312;9.246;2023-10-19T08:26:41;91897.09;;;10.06;100.00
71057;BME280;58380;48.312;9.246;2023-10-19T08:29:42;91885.75;;;10.19;100.00
71057;BME280;58380;48.312;9.246;2023-10-19T08:32:43;91882.53;;;10.36;100.00
71057;BME280;58380;48.312;9.246;2023-10-19T08:35:46;91880.13;;;10.48;100.00
71057;BME280;58380;48.312;9.246;2023-10-19T08:38:58;91883.97;;;10.65;100.00
71057;BME280;58380;48.312;9.246;2023-10-19T08:41:59;91887.72;;;10.72;100.00
71057;BME280;58380;48.312;9.246;2023-10-19T08:45:00;91877.38;;;10.76;100.00
71057;BME280;58380;48.312;9.246;2023-10-19T08:48:01;91873.81;;;10.80;100.00
71057;BME280;58380;48.312;9.246;2023-10-19T08:51:09;91865.59;;;10.82;100.00
71057;BME280;58380;48.312;9.246;2023-10-19T08:54:12;91875.41;;;10.90;100.00
71057;BME280;58380;48.312;9.246;2023-10-19T08:57:13;91872.69;;;11.04;100.00
71057;BME280;58380;48.312;9.246;2023-10-19T09:00:15;91881.00;;;11.20;100.00
71057;BME280;58380;48.312;9.246;2023-10-19T09:03:20;91877.19;;;11.35;100.00
71057;BME280;58380;48.312;9.246;2023-10-19T09:06:22;91867.72;;;11.42;100.00
71057;BME280;58380;48.312;9.246;2023-10-19T09:09:22;91869.81;;;11.54;100.00
71057;BME280;58380;48.312;9.246;2023-10-19T09:12:25;91868.91;;;11.68;100.00
71057;BME280;58380;48.312;9.246;2023-10-19T09:15:27;91863.50;;;11.81;100.00
71057;BME280;58380;48.312;9.246;2023-10-19T09:18:29;91847.53;;;11.86;100.00
71057;BME280;58380;48.312;9.246;2023-10-19T09:21:30;91859.53;;;12.01;100.00
71057;BME280;58380;48.312;9.246;2023-10-19T09:24:34;91866.97;;;12.08;100.00
71057;BME280;58380;48.312;9.246;2023-10-19T09:27:35;91854.22;;;12.10;100.00
71057;BME280;58380;48.312;9.246;2023-10-19T09:30:36;91857.03;;;12.14;100.00
71057;BME280;58380;48.312;9.246;2023-10-19T09:33:40;91853.31;;;12.06;100.00
71057;BME280;58380;48.312;9.246;2023-10-19T09:36:41;91849.09;;;12.05;100.00
71057;BME280;58380;48.312;9.246;2023-10-19T09:39:43;91850.00;;;11.92;100.00
71057;BME280;58380;48.312;9.246;2023-10-19T09:42:47;91853.44;;;11.92;100.00
71057;BME280;58380;48.312;9.246;2023-10-19T09:45:53;91859.94;;;11.86;100.00
71057;BME280;58380;48.312;9.246;2023-10-19T09:48:59;91857.28;;;11.86;100.00
71057;BME280;58380;48.312;9.246;2023-10-19T09:52:00;91854.81;;;11.90;100.00
71057;BME280;58380;48.312;9.246;2023-10-19T09:55:17;91849.09;;;11.96;100.00
71057;BME280;58380;48.312;9.246;2023-10-19T09:58:45;91852.53;;;12.14;100.00
71057;BME280;58380;48.312;9.246;2023-10-19T10:02:06;91842.72;;;12.23;100.00
71057;BME280;58380;48.312;9.246;2023-10-19T10:08:43;91854.88;;;12.33;100.00
71057;BME280;58380;48.312;9.246;2023-10-19T10:11:48;91846.47;;;12.31;100.00
71057;BME280;58380;48.312;9.246;2023-10-19T10:15:03;91855.94;;;12.32;100.00
71057;BME280;58380;48.312;9.246;2023-10-19T10:18:15;91851.91;;;12.35;100.00
71057;BME280;58380;48.312;9.246;2023-10-19T10:21:22;91846.16;;;12.41;100.00
71057;BME280;58380;48.312;9.246;2023-10-19T10:24:27;91844.28;;;12.42;100.00
71057;BME280;58380;48.312;9.246;2023-10-19T10:27:27;91837.59;;;12.44;100.00
71057;BME280;58380;48.312;9.246;2023-10-19T10:30:30;91835.09;;;12.57;100.00
71057;BME280;58380;48.312;9.246;2023-10-19T10:33:38;91831.63;;;12.65;100.00
71057;BME280;58380;48.312;9.246;2023-10-19T10:37:08;91821.53;;;12.67;100.00
71057;BME280;58380;48.312;9.246;2023-10-19T10:40:11;91824.19;;;12.58;100.00
71057;BME280;58380;48.312;9.246;2023-10-19T10:43:12;91826.03;;;12.66;100.00
71057;BME280;58380;48.312;9.246;2023-10-19T10:46:12;91823.56;;;12.52;100.00
71057;BME280;58380;48.312;9.246;2023-10-19T10:49:15;91822.81;;;12.43;100.00
71057;BME280;58380;48.312;9.246;2023-10-19T10:52:33;91813.00;;;12.26;100.00
71057;BME280;58380;48.312;9.246;2023-10-19T10:55:34;91827.00;;;12.27;100.00
71057;BME280;58380;48.312;9.246;2023-10-19T10:58:34;91816.59;;;12.30;100.00
71057;BME280;58380;48.312;9.246;2023-10-19T11:01:35;91820.00;;;12.40;100.00
71057;BME280;58380;48.312;9.246;2023-10-19T11:04:43;91811.13;;;12.53;100.00
71057;BME280;58380;48.312;9.246;2023-10-19T11:08:04;91808.75;;;12.69;100.00
71057;BME280;58380;48.312;9.246;2023-10-19T11:11:20;91797.06;;;12.79;100.00
71057;BME280;58380;48.312;9.246;2023-10-19T11:14:22;91804.78;;;12.92;100.00
71057;BME280;58380;48.312;9.246;2023-10-19T11:17:25;91805.84;;;13.00;100.00
71057;BME280;58380;48.312;9.246;2023-10-19T11:20:33;91808.00;;;13.07;100.00
71057;BME280;58380;48.312;9.246;2023-10-19T11:23:35;91804.41;;;13.11;100.00
71057;BME280;58380;48.312;9.246;2023-10-19T11:26:40;91810.53;;;13.03;100.00
71057;BME280;58380;48.312;9.246;2023-10-19T11:29:53;91807.72;;;13.00;100.00
71057;BME280;58380;48.312;9.246;2023-10-19T11:32:58;91807.09;;;13.03;100.00
71057;BME280;58380;48.312;9.246;2023-10-19T11:36:01;91798.06;;;13.04;100.00
71057;BME280;58380;48.312;9.246;2023-10-19T11:39:02;91788.66;;;13.15;100.00
71057;BME280;58380;48.312;9.246;2023-10-19T11:42:04;91778.34;;;13.31;100.00
71057;BME280;58380;48.312;9.246;2023-10-19T11:45:05;91776.22;;;13.45;100.00
71057;BME280;58380;48.312;9.246;2023-10-19T11:48:06;91764.56;;;13.67;100.00
71057;BME280;58380;48.312;9.246;2023-10-19T11:51:08;91749.25;;;13.94;100.00
71057;BME280;58380;48.312;9.246;2023-10-19T11:54:11;91738.34;;;14.08;100.00
71057;BME280;58380;48.312;9.246;2023-10-19T11:57:12;91723.91;;;14.17;100.00
71057;BME280;58380;48.312;9.246;2023-10-19T12:00:13;91734.72;;;14.33;100.00
71057;BME280;58380;48.312;9.246;2023-10-19T12:03:20;91730.44;;;14.41;100.00
71057;BME280;58380;48.312;9.246;2023-10-19T12:06:20;91727.34;;;14.51;100.00
71057;BME280;58380;48.312;9.246;2023-10-19T12:09:23;91734.47;;;14.59;100.00
71057;BME280;58380;48.312;9.246;2023-10-19T12:12:24;91718.91;;;14.58;100.00
71057;BME280;58380;48.312;9.246;2023-10-19T12:15:25;91709.75;;;14.46;100.00
71057;BME280;58380;48.312;9.246;2023-10-19T12:18:26;91728.72;;;14.57;100.00
71057;BME280;58380;48.312;9.246;2023-10-19T12:21:28;91717.22;;;14.53;100.00
71057;BME280;58380;48.312;9.246;2023-10-19T12:24:30;91717.06;;;14.50;100.00
71057;BME280;58380;48.312;9.246;2023-10-19T12:27:31;91719.97;;;14.57;100.00
71057;BME280;58380;48.312;9.246;2023-10-19T12:30:31;91727.19;;;14.56;100.00
71057;BME280;58380;48.312;9.246;2023-10-19T12:33:32;91706.78;;;14.48;100.00
71057;BME280;58380;48.312;9.246;2023-10-19T12:36:33;91708.31;;;14.49;100.00
71057;BME280;58380;48.312;9.246;2023-10-19T12:39:35;91713.38;;;14.42;100.00
71057;BME280;58380;48.312;9.246;2023-10-19T12:42:35;91700.31;;;14.37;100.00
71057;BME280;58380;48.312;9.246;2023-10-19T12:45:36;91704.34;;;14.43;100.00
71057;BME280;58380;48.312;9.246;2023-10-19T12:48:40;91710.13;;;14.57;100.00
71057;BME280;58380;48.312;9.246;2023-10-19T12:51:40;91703.00;;;14.49;100.00
71057;BME280;58380;48.312;9.246;2023-10-19T12:54:42;91710.78;;;14.54;100.00
71057;BME280;58380;48.312;9.246;2023-10-19T12:57:45;91712.19;;;14.52;100.00
71057;BME280;58380;48.312;9.246;2023-10-19T13:00:46;91716.75;;;14.51;100.00
71057;BME280;58380;48.312;9.246;2023-10-19T13:03:50;91715.78;;;14.56;100.00
71057;BME280;58380;48.312;9.246;2023-10-19T13:06:51;91717.00;;;14.58;100.00
71057;BME280;58380;48.312;9.246;2023-10-19T13:09:52;91707.06;;;14.55;100.00
71057;BME280;58380;48.312;9.246;2023-10-19T13:12:52;91703.28;;;14.56;100.00
71057;BME280;58380;48.312;9.246;2023-10-19T13:15:54;91690.91;;;14.60;100.00
71057;BME280;58380;48.312;9.246;2023-10-19T13:18:54;91690.47;;;14.71;100.00
71057;BME280;58380;48.312;9.246;2023-10-19T13:21:54;91691.56;;;14.70;100.00
71057;BME280;58380;48.312;9.246;2023-10-19T13:24:58;91701.09;;;14.71;100.00
71057;BME280;58380;48.312;9.246;2023-10-19T13:27:59;91683.94;;;14.68;100.00
71057;BME280;58380;48.312;9.246;2023-10-19T13:31:00;91691.25;;;14.71;100.00
71057;BME280;58380;48.312;9.246;2023-10-19T13:34:00;91680.72;;;14.75;100.00
71057;BME280;58380;48.312;9.246;2023-10-19T13:37:03;91667.78;;;14.73;100.00
71057;BME280;58380;48.312;9.246;2023-10-19T13:40:04;91670.56;;;14.77;100.00
71057;BME280;58380;48.312;9.246;2023-10-19T13:43:07;91660.69;;;14.77;100.00
71057;BME280;58380;48.312;9.246;2023-10-19T13:46:13;91672.13;;;14.78;100.00
71057;BME280;58380;48.312;9.246;2023-10-19T13:49:15;91681.72;;;14.70;100.00
71057;BME280;58380;48.312;9.246;2023-10-19T13:52:18;91684.47;;;14.61;100.00
71057;BME280;58380;48.312;9.246;2023-10-19T13:55:20;91681.72;;;14.58;100.00
71057;BME280;58380;48.312;9.246;2023-10-19T13:58:20;91670.88;;;14.63;100.00
71057;BME280;58380;48.312;9.246;2023-10-19T14:01:21;91672.97;;;14.70;100.00
71057;BME280;58380;48.312;9.246;2023-10-19T14:04:25;91664.16;;;14.78;100.00
71057;BME280;58380;48.312;9.246;2023-10-19T14:07:26;91670.78;;;14.84;100.00
71057;BME280;58380;48.312;9.246;2023-10-19T14:10:26;91667.47;;;14.87;100.00
71057;BME280;58380;48.312;9.246;2023-10-19T14:13:28;91662.81;;;14.84;100.00
71057;BME280;58380;48.312;9.246;2023-10-19T14:16:29;91659.50;;;14.87;100.00
71057;BME280;58380;48.312;9.246;2023-10-19T14:19:29;91645.66;;;14.81;100.00
71057;BME280;58380;48.312;9.246;2023-10-19T14:22:30;91648.63;;;14.80;100.00
71057;BME280;58380;48.312;9.246;2023-10-19T14:25:37;91639.44;;;14.65;100.00
71057;BME280;58380;48.312;9.246;2023-10-19T14:28:39;91646.09;;;14.59;100.00
71057;BME280;58380;48.312;9.246;2023-10-19T14:31:41;91646.72;;;14.43;100.00
71057;BME280;58380;48.312;9.246;2023-10-19T14:34:41;91646.00;;;14.22;100.00
71057;BME280;58380;48.312;9.246;2023-10-19T14:37:50;91638.59;;;14.15;100.00
71057;BME280;58380;48.312;9.246;2023-10-19T14:40:54;91632.84;;;14.13;100.00
71057;BME280;58380;48.312;9.246;2023-10-19T14:43:55;91630.38;;;14.08;100.00
71057;BME280;58380;48.312;9.246;2023-10-19T14:46:55;91636.09;;;13.98;100.00
71057;BME280;58380;48.312;9.246;2023-10-19T14:49:56;91635.75;;;13.99;100.00
71057;BME280;58380;48.312;9.246;2023-10-19T14:52:56;91627.81;;;13.99;100.00
71057;BME280;58380;48.312;9.246;2023-10-19T14:55:57;91599.94;;;13.93;100.00
71057;BME280;58380;48.312;9.246;2023-10-19T14:58:57;91598.84;;;13.94;100.00
71057;BME280;58380;48.312;9.246;2023-10-19T15:01:59;91596.75;;;14.00;100.00
71057;BME280;58380;48.312;9.246;2023-10-19T15:04:59;91588.91;;;14.03;100.00
71057;BME280;58380;48.312;9.246;2023-10-19T15:07:59;91588.38;;;14.10;100.00
71057;BME280;58380;48.312;9.246;2023-10-19T15:11:00;91566.72;;;14.08;100.00
71057;BME280;58380;48.312;9.246;2023-10-19T15:14:00;91565.50;;;14.06;100.00
71057;BME280;58380;48.312;9.246;2023-10-19T15:17:01;91567.34;;;13.93;100.00
71057;BME280;58380;48.312;9.246;2023-10-19T15:20:02;91561.25;;;13.92;100.00
71057;BME280;58380;48.312;9.246;2023-10-19T15:23:05;91561.59;;;13.91;100.00
71057;BME280;58380;48.312;9.246;2023-10-19T15:26:06;91565.34;;;13.90;100.00
71057;BME280;58380;48.312;9.246;2023-10-19T15:29:07;91541.34;;;13.74;100.00
71057;BME280;58380;48.312;9.246;2023-10-19T15:32:07;91529.97;;;13.73;100.00
71057;BME280;58380;48.312;9.246;2023-10-19T15:35:13;91534.13;;;13.62;100.00
71057;BME280;58380;48.312;9.246;2023-10-19T15:38:15;91548.69;;;13.56;100.00
71057;BME280;58380;48.312;9.246;2023-10-19T15:41:16;91533.50;;;13.44;100.00
71057;BME280;58380;48.312;9.246;2023-10-19T15:44:19;91528.06;;;13.28;100.00
71057;BME280;58380;48.312;9.246;2023-10-19T15:47:20;91512.28;;;13.11;100.00
71057;BME280;58380;48.312;9.246;2023-10-19T15:50:22;91523.91;;;12.98;100.00
71057;BME280;58380;48.312;9.246;2023-10-19T15:53:22;91539.22;;;12.92;100.00
71057;BME280;58380;48.312;9.246;2023-10-19T15:56:23;91546.56;;;12.86;100.00
71057;BME280;58380;48.312;9.246;2023-10-19T15:59:26;91550.13;;;12.90;100.00
71057;BME280;58380;48.312;9.246;2023-10-19T16:02:27;91530.88;;;12.81;100.00
71057;BME280;58380;48.312;9.246;2023-10-19T16:05:29;91538.94;;;12.85;100.00
71057;BME280;58380;48.312;9.246;2023-10-19T16:08:29;91524.63;;;12.86;100.00
71057;BME280;58380;48.312;9.246;2023-10-19T16:11:30;91528.69;;;12.83;100.00
71057;BME280;58380;48.312;9.246;2023-10-19T16:14:31;91514.53;;;12.79;100.00
71057;BME280;58380;48.312;9.246;2023-10-19T16:17:31;91514.84;;;12.78;100.00
71057;BME280;58380;48.312;9.246;2023-10-19T16:20:32;91498.78;;;12.62;100.00
71057;BME280;58380;48.312;9.246;2023-10-19T16:23:33;91512.66;;;12.59;100.00
71057;BME280;58380;48.312;9.246;2023-10-19T16:26:34;91522.72;;;12.65;100.00
71057;BME280;58380;48.312;9.246;2023-10-19T16:29:35;91511.25;;;12.61;100.00
71057;BME280;58380;48.312;9.246;2023-10-19T16:32:36;91515.75;;;12.61;100.00
71057;BME280;58380;48.312;9.246;2023-10-19T16:35:38;91522.59;;;12.62;100.00
71057;BME280;58380;48.312;9.246;2023-10-19T16:38:38;91534.59;;;12.59;100.00
71057;BME280;58380;48.312;9.246;2023-10-19T16:41:39;91536.97;;;12.52;100.00
71057;BME280;58380;48.312;9.246;2023-10-19T16:44:40;91541.19;;;12.53;100.00
71057;BME280;58380;48.312;9.246;2023-10-19T16:47:40;91559.56;;;12.49;100.00
71057;BME280;58380;48.312;9.246;2023-10-19T16:50:41;91543.88;;;12.44;100.00
71057;BME280;58380;48.312;9.246;2023-10-19T16:53:41;91548.50;;;12.47;100.00
71057;BME280;58380;48.312;9.246;2023-10-19T16:56:42;91555.88;;;12.42;100.00
71057;BME280;58380;48.312;9.246;2023-10-19T16:59:48;91546.06;;;12.42;100.00
71057;BME280;58380;48.312;9.246;2023-10-19T17:02:51;91546.41;;;12.32;100.00
71057;BME280;58380;48.312;9.246;2023-10-19T17:05:52;91526.13;;;12.15;100.00
71057;BME280;58380;48.312;9.246;2023-10-19T17:08:52;91538.38;;;12.20;100.00
71057;BME280;58380;48.312;9.246;2023-10-19T17:11:53;91523.19;;;12.08;100.00
71057;BME280;58380;48.312;9.246;2023-10-19T17:14:54;91542.91;;;12.19;100.00
71057;BME280;58380;48.312;9.246;2023-10-19T17:17:54;91536.06;;;12.18;100.00
71057;BME280;58380;48.312;9.246;2023-10-19T17:20:55;91547.44;;;12.19;100.00
71057;BME280;58380;48.312;9.246;2023-10-19T17:23:56;91533.16;;;12.11;100.00
71057;BME280;58380;48.312;9.246;2023-10-19T17:26:57;91532.97;;;12.16;100.00
71057;BME280;58380;48.312;9.246;2023-10-19T17:29:58;91528.63;;;12.12;100.00
71057;BME280;58380;48.312;9.246;2023-10-19T17:32:58;91511.06;;;12.07;100.00
71057;BME280;58380;48.312;9.246;2023-10-19T17:35:58;91505.31;;;12.05;100.00
71057;BME280;58380;48.312;9.246;2023-10-19T17:38:59;91484.34;;;12.00;100.00
71057;BME280;58380;48.312;9.246;2023-10-19T17:42:00;91492.25;;;12.08;100.00
71057;BME280;58380;48.312;9.246;2023-10-19T17:45:00;91487.56;;;12.05;100.00
71057;BME280;58380;48.312;9.246;2023-10-19T17:48:04;91480.25;;;12.11;100.00
71057;BME280;58380;48.312;9.246;2023-10-19T17:51:09;91465.38;;;11.98;100.00
71057;BME280;58380;48.312;9.246;2023-10-19T17:54:14;91483.97;;;12.10;100.00
71057;BME280;58380;48.312;9.246;2023-10-19T17:57:15;91471.28;;;12.03;100.00
71057;BME280;58380;48.312;9.246;2023-10-19T18:00:17;91480.56;;;12.09;100.00
71057;BME280;58380;48.312;9.246;2023-10-19T18:03:17;91481.03;;;12.12;100.00
71057;BME280;58380;48.312;9.246;2023-10-19T18:06:19;91467.03;;;12.11;100.00
71057;BME280;58380;48.312;9.246;2023-10-19T18:09:20;91475.59;;;12.08;100.00
71057;BME280;58380;48.312;9.246;2023-10-19T18:12:20;91485.41;;;12.07;100.00
71057;BME280;58380;48.312;9.246;2023-10-19T18:15:22;91492.25;;;12.08;100.00
71057;BME280;58380;48.312;9.246;2023-10-19T18:18:23;91481.94;;;12.16;100.00
71057;BME280;58380;48.312;9.246;2023-10-19T18:21:26;91477.16;;;12.09;100.00
71057;BME280;58380;48.312;9.246;2023-10-19T18:24:26;91473.75;;;12.08;100.00
71057;BME280;58380;48.312;9.246;2023-10-19T18:27:31;91472.50;;;12.06;100.00
71057;BME280;58380;48.312;9.246;2023-10-19T18:30:32;91440.78;;;12.06;100.00
71057;BME280;58380;48.312;9.246;2023-10-19T18:33:32;91445.72;;;12.07;100.00
71057;BME280;58380;48.312;9.246;2023-10-19T18:36:33;91449.50;;;11.98;100.00
71057;BME280;58380;48.312;9.246;2023-10-19T18:39:34;91442.69;;;11.97;100.00
71057;BME280;58380;48.312;9.246;2023-10-19T18:42:34;91424.22;;;11.88;100.00
71057;BME280;58380;48.312;9.246;2023-10-19T18:45:35;91450.44;;;12.02;100.00
71057;BME280;58380;48.312;9.246;2023-10-19T18:48:36;91472.63;;;12.09;100.00
71057;BME280;58380;48.312;9.246;2023-10-19T18:51:37;91470.63;;;12.06;100.00
71057;BME280;58380;48.312;9.246;2023-10-19T18:54:37;91447.50;;;11.95;100.00
71057;BME280;58380;48.312;9.246;2023-10-19T18:57:38;91452.31;;;12.01;100.00
71057;BME280;58380;48.312;9.246;2023-10-19T19:00:38;91449.75;;;12.14;100.00
71057;BME280;58380;48.312;9.246;2023-10-19T19:03:39;91419.28;;;12.07;100.00
71057;BME280;58380;48.312;9.246;2023-10-19T19:06:39;91421.47;;;12.05;100.00
71057;BME280;58380;48.312;9.246;2023-10-19T19:09:41;91427.94;;;12.17;100.00
71057;BME280;58380;48.312;9.246;2023-10-19T19:12:42;91411.63;;;12.15;100.00
71057;BME280;58380;48.312;9.246;2023-10-19T19:15:42;91405.88;;;12.13;100.00
71057;BME280;58380;48.312;9.246;2023-10-19T19:18:44;91428.72;;;12.17;100.00
71057;BME280;58380;48.312;9.246;2023-10-19T19:21:45;91425.56;;;12.24;100.00
71057;BME280;58380;48.312;9.246;2023-10-19T19:24:45;91412.72;;;12.14;100.00
71057;BME280;58380;48.312;9.246;2023-10-19T19:27:45;91425.94;;;12.14;100.00
71057;BME280;58380;48.312;9.246;2023-10-19T19:30:46;91405.44;;;12.11;100.00
71057;BME280;58380;48.312;9.246;2023-10-19T19:33:47;91415.56;;;12.08;100.00
71057;BME280;58380;48.312;9.246;2023-10-19T19:36:47;91398.38;;;11.94;100.00
71057;BME280;58380;48.312;9.246;2023-10-19T19:39:48;91413.69;;;12.09;100.00
71057;BME280;58380;48.312;9.246;2023-10-19T19:42:49;91399.44;;;12.01;100.00
71057;BME280;58380;48.312;9.246;2023-10-19T19:45:49;91418.22;;;12.08;100.00
71057;BME280;58380;48.312;9.246;2023-10-19T19:48:50;91398.97;;;11.99;100.00
71057;BME280;58380;48.312;9.246;2023-10-19T19:51:50;91393.03;;;12.02;100.00
71057;BME280;58380;48.312;9.246;2023-10-19T19:54:50;91382.91;;;12.04;100.00
71057;BME280;58380;48.312;9.246;2023-10-19T19:57:53;91395.38;;;12.04;100.00
71057;BME280;58380;48.312;9.246;2023-10-19T20:00:53;91401.88;;;12.06;100.00
71057;BME280;58380;48.312;9.246;2023-10-19T20:03:54;91394.44;;;12.00;100.00
71057;BME280;58380;48.312;9.246;2023-10-19T20:06:55;91390.38;;;12.02;100.00
71057;BME280;58380;48.312;9.246;2023-10-19T20:09:55;91390.56;;;11.97;100.00
71057;BME280;58380;48.312;9.246;2023-10-19T20:12:56;91370.09;;;11.85;100.00
71057;BME280;58380;48.312;9.246;2023-10-19T20:15:57;91396.59;;;12.06;100.00
71057;BME280;58380;48.312;9.246;2023-10-19T20:18:58;91389.16;;;12.00;100.00
71057;BME280;58380;48.312;9.246;2023-10-19T20:21:59;91392.53;;;12.09;100.00
71057;BME280;58380;48.312;9.246;2023-10-19T20:24:59;91382.25;;;12.07;100.00
71057;BME280;58380;48.312;9.246;2023-10-19T20:28:00;91396.59;;;12.06;100.00
71057;BME280;58380;48.312;9.246;2023-10-19T20:31:02;91389.94;;;12.00;100.00
71057;BME280;58380;48.312;9.246;2023-10-19T20:34:03;91381.81;;;12.05;100.00
71057;BME280;58380;48.312;9.246;2023-10-19T20:37:03;91375.63;;;12.01;100.00
71057;BME280;58380;48.312;9.246;2023-10-19T20:40:05;91356.53;;;11.96;100.00
71057;BME280;58380;48.312;9.246;2023-10-19T20:43:32;91330.88;;;11.96;100.00
71057;BME280;58380;48.312;9.246;2023-10-19T20:46:32;91334.16;;;11.93;100.00
71057;BME280;58380;48.312;9.246;2023-10-19T20:49:34;91319.53;;;11.96;100.00
71057;BME280;58380;48.312;9.246;2023-10-19T20:52:36;91307.72;;;11.93;100.00
71057;BME280;58380;48.312;9.246;2023-10-19T20:55:36;91293.09;;;11.96;100.00
71057;BME280;58380;48.312;9.246;2023-10-19T20:58:37;91273.22;;;11.90;100.00
71057;BME280;58380;48.312;9.246;2023-10-19T21:01:38;91265.75;;;11.92;100.00
71057;BME280;58380;48.312;9.246;2023-10-19T21:04:38;91248.84;;;11.84;100.00
71057;BME280;58380;48.312;9.246;2023-10-19T21:07:38;91253.66;;;11.82;100.00
71057;BME280;58380;48.312;9.246;2023-10-19T21:10:39;91241.56;;;11.81;100.00
71057;BME280;58380;48.312;9.246;2023-10-19T21:13:40;91243.41;;;11.80;100.00
71057;BME280;58380;48.312;9.246;2023-10-19T21:16:40;91241.22;;;11.82;100.00
71057;BME280;58380;48.312;9.246;2023-10-19T21:19:40;91225.44;;;11.74;100.00
71057;BME280;58380;48.312;9.246;2023-10-19T21:22:42;91234.25;;;11.78;100.00
71057;BME280;58380;48.312;9.246;2023-10-19T21:25:43;91220.91;;;11.74;100.00
71057;BME280;58380;48.312;9.246;2023-10-19T21:28:44;91224.91;;;11.80;100.00
71057;BME280;58380;48.312;9.246;2023-10-19T21:31:44;91232.81;;;11.80;100.00
